LFLXLFBA

Guest
Details From LFLX - Chateauroux Deols
To LFBA - Agen la Garenne
Flight Number -
Tags generated
Created
Modified
Stats Distance 169 nm / 313 km
Max Altitude 16,600 ft / 5,060 m
Waypoints 3
Social Downloads 1
Likes 0
Share VATSIM

Download

Looking for another format? Having issues loading an existing format? Contact us
Advertisement - Login to hide

Notes

Basic altitude profile: - Ascent Rate: 2500ft/min - Ascent Speed: 250kts - Cruise Altitude: 35000ft - Cruise Speed: 420kts - Descent Rate: 1500ft/min - Descent Speed: 250kts Options: - Use NATs: no - Use PACOTS: no - Use low airways: yes - Use high airways: no

Route

LFLX LMG18 LFBA

ID Type Via Altitude Latitude Longitude Leg Dist Tot Dist Heading (true) Name
O LFLX APT - 0 ft / 0 m 46.86375˚ 1.73167˚ - 0 nm - Chateauroux Deols
LMG18 FIX - 16,600 ft / 5,060 m 45.51639˚ 1.00139˚ 86 nm 86 nm 201° / 200° -
O LFBA APT - 0 ft / 0 m 44.17403˚ 0.59296˚ 82 nm 168 nm 192° / 192° Agen la Garenne

Altitude Profile

Advertisement - Login to hide

Weather


0- 5 10 15 20 25 30 35+ Temperature / ° C

Clouds and Precipitation
Forecast for 2018-05-22 06:00 UTC. Updated 3 hours ago

Ground ~20,000 ft ~40,000 ft Winds

LFLX

Details ICAO LFLX (CHR)
Name Chateauroux Deols
Region France
Timezone Europe/Paris (UTC+2.0)
Stats Elevation 529 ft / 161 m (AMSL)
Location 46.863750° 1.731667°
Runways 1
Magnetic Variation 0.581° E

METAR

LFLX 220830Z AUTO 29004KT 250V350 CAVOK 19/14 Q1014 BECMG SCT040TCU

Decode

TAF

TAF LFLX 220500Z 2206/2312 VRB04KT CAVOK BECMG 2209/2211 SCT040TCU TEMPO 2211/2220 3000 SHRA PROB40 TEMPO 2214/2219 32005G15KT -TSRA SCT050CB PROB40 TEMPO 2302/2306 2500 BR SCT006 BECMG 2309/2311 SCT030TCU TEMPO 2311/2312 4000 -SHRA

Decode

Departure Runways

ID Width Length Bearing (true) Bearing (mag) Surface Threshold Offset Overrun Length
04 148 ft / 45 m 11,473 ft / 3,497 m 32.92° 32.34° Concrete 0 ft / 0 m 0 ft / 0 m
22 148 ft / 45 m 11,473 ft / 3,497 m 212.94° 212.36° Concrete 0 ft / 0 m 0 ft / 0 m

LFBA

Details ICAO LFBA (AGF)
Name Agen la Garenne
Region France
Timezone Europe/Paris (UTC+2.0)
Stats Elevation 204 ft / 62 m (AMSL)
Location 44.174025° 0.592961°
Runways 1
Magnetic Variation 0.395° E

METAR

LFBA 220830Z AUTO 00000KT 9999 4000 OVC013 17/15 Q1015 BECMG SCT040

Decode

TAF

Not found

Destination Runways

ID Width Length Bearing (true) Bearing (mag) Surface Threshold Offset Overrun Length
11 98 ft / 30 m 7,088 ft / 2,161 m 112.24° 111.85° Asphalt 541 ft / 165 m 0 ft / 0 m
29 98 ft / 30 m 7,088 ft / 2,161 m 292.26° 291.87° Asphalt 1,312 ft / 400 m 0 ft / 0 m

Approach Navaids

Runway Type Ident Frequency Range Bearing (true) Bearing (mag) Slope Elevation
29 Localiser AG 110.35 MHz 18 nm / 33 km 292.25° 291.86° - 213 ft / 65 m (AMSL)
29 Glidescope AG 110.35 MHz 10 nm / 19 km 292.25° 291.86° 3.30° 240 ft / 73 m (AMSL)
29 DME AG 110.35 MHz 18 nm / 33 km - - - 240 ft / 73 m (AMSL)